sensor_id;sensor_type;location;lat;lon;timestamp;P1;durP1;ratioP1;P2;durP2;ratioP2
6671;SDS011;3372;48.690;12.362;2022-07-29T00:00:38;8.10;;;6.97;;
6671;SDS011;3372;48.690;12.362;2022-07-29T00:03:04;8.27;;;6.30;;
6671;SDS011;3372;48.690;12.362;2022-07-29T00:05:29;7.90;;;7.10;;
6671;SDS011;3372;48.690;12.362;2022-07-29T00:07:55;8.10;;;6.60;;
6671;SDS011;3372;48.690;12.362;2022-07-29T00:10:21;8.70;;;5.90;;
6671;SDS011;3372;48.690;12.362;2022-07-29T00:12:46;9.73;;;7.10;;
6671;SDS011;3372;48.690;12.362;2022-07-29T00:15:12;10.07;;;6.70;;
6671;SDS011;3372;48.690;12.362;2022-07-29T00:17:38;7.40;;;6.27;;
6671;SDS011;3372;48.690;12.362;2022-07-29T00:20:04;6.73;;;6.13;;
6671;SDS011;3372;48.690;12.362;2022-07-29T00:22:30;9.63;;;7.10;;
6671;SDS011;3372;48.690;12.362;2022-07-29T00:24:56;6.90;;;6.07;;
6671;SDS011;3372;48.690;12.362;2022-07-29T00:27:21;7.87;;;6.93;;
6671;SDS011;3372;48.690;12.362;2022-07-29T00:29:47;8.20;;;6.70;;
6671;SDS011;3372;48.690;12.362;2022-07-29T00:32:12;7.13;;;6.43;;
6671;SDS011;3372;48.690;12.362;2022-07-29T00:34:38;7.20;;;6.40;;
6671;SDS011;3372;48.690;12.362;2022-07-29T00:37:23;9.40;;;7.23;;
6671;SDS011;3372;48.690;12.362;2022-07-29T00:39:48;7.23;;;6.53;;
6671;SDS011;3372;48.690;12.362;2022-07-29T00:42:14;7.63;;;6.90;;
6671;SDS011;3372;48.690;12.362;2022-07-29T00:44:41;8.17;;;7.37;;
6671;SDS011;3372;48.690;12.362;2022-07-29T00:47:08;8.30;;;7.50;;
6671;SDS011;3372;48.690;12.362;2022-07-29T00:49:35;7.43;;;6.40;;
6671;SDS011;3372;48.690;12.362;2022-07-29T00:52:01;8.93;;;6.77;;
6671;SDS011;3372;48.690;12.362;2022-07-29T00:54:28;10.53;;;6.50;;
6671;SDS011;3372;48.690;12.362;2022-07-29T00:56:54;7.30;;;6.70;;
6671;SDS011;3372;48.690;12.362;2022-07-29T00:59:22;7.70;;;6.90;;
6671;SDS011;3372;48.690;12.362;2022-07-29T01:01:48;7.30;;;6.70;;
6671;SDS011;3372;48.690;12.362;2022-07-29T01:04:14;8.00;;;7.20;;
6671;SDS011;3372;48.690;12.362;2022-07-29T01:06:39;7.67;;;6.97;;
6671;SDS011;3372;48.690;12.362;2022-07-29T01:09:06;8.33;;;7.43;;
6671;SDS011;3372;48.690;12.362;2022-07-29T01:11:32;7.20;;;6.60;;
6671;SDS011;3372;48.690;12.362;2022-07-29T01:13:58;8.70;;;7.90;;
6671;SDS011;3372;48.690;12.362;2022-07-29T01:16:27;8.57;;;7.10;;
6671;SDS011;3372;48.690;12.362;2022-07-29T01:19:04;8.00;;;6.80;;
6671;SDS011;3372;48.690;12.362;2022-07-29T01:21:50;8.57;;;6.90;;
6671;SDS011;3372;48.690;12.362;2022-07-29T01:24:39;7.37;;;6.67;;
6671;SDS011;3372;48.690;12.362;2022-07-29T01:27:38;8.20;;;7.43;;
6671;SDS011;3372;48.690;12.362;2022-07-29T01:30:12;9.03;;;6.77;;
6671;SDS011;3372;48.690;12.362;2022-07-29T01:32:38;7.87;;;7.07;;
6671;SDS011;3372;48.690;12.362;2022-07-29T01:35:23;9.10;;;8.20;;
6671;SDS011;3372;48.690;12.362;2022-07-29T01:38:01;8.60;;;7.80;;
6671;SDS011;3372;48.690;12.362;2022-07-29T01:43:42;8.37;;;7.57;;
6671;SDS011;3372;48.690;12.362;2022-07-29T01:46:14;8.37;;;7.57;;
6671;SDS011;3372;48.690;12.362;2022-07-29T01:48:51;8.27;;;7.20;;
6671;SDS011;3372;48.690;12.362;2022-07-29T01:56:51;8.83;;;7.87;;
6671;SDS011;3372;48.690;12.362;2022-07-29T01:59:19;8.43;;;7.63;;
6671;SDS011;3372;48.690;12.362;2022-07-29T02:01:47;8.50;;;7.67;;
6671;SDS011;3372;48.690;12.362;2022-07-29T02:04:15;9.53;;;8.20;;
6671;SDS011;3372;48.690;12.362;2022-07-29T02:06:43;9.30;;;8.40;;
6671;SDS011;3372;48.690;12.362;2022-07-29T02:09:10;8.60;;;7.80;;
6671;SDS011;3372;48.690;12.362;2022-07-29T02:11:39;8.10;;;7.30;;
6671;SDS011;3372;48.690;12.362;2022-07-29T02:14:07;8.67;;;7.87;;
6671;SDS011;3372;48.690;12.362;2022-07-29T02:16:35;8.57;;;7.37;;
6671;SDS011;3372;48.690;12.362;2022-07-29T02:19:04;10.83;;;7.73;;
6671;SDS011;3372;48.690;12.362;2022-07-29T02:21:30;8.40;;;7.70;;
6671;SDS011;3372;48.690;12.362;2022-07-29T02:23:59;8.60;;;7.80;;
6671;SDS011;3372;48.690;12.362;2022-07-29T02:26:26;8.47;;;7.77;;
6671;SDS011;3372;48.690;12.362;2022-07-29T02:28:54;10.50;;;8.53;;
6671;SDS011;3372;48.690;12.362;2022-07-29T02:31:22;8.87;;;8.07;;
6671;SDS011;3372;48.690;12.362;2022-07-29T02:33:50;10.50;;;8.10;;
6671;SDS011;3372;48.690;12.362;2022-07-29T02:36:18;9.30;;;8.30;;
6671;SDS011;3372;48.690;12.362;2022-07-29T02:38:46;11.57;;;8.63;;
6671;SDS011;3372;48.690;12.362;2022-07-29T02:41:40;9.47;;;8.57;;
6671;SDS011;3372;48.690;12.362;2022-07-29T02:44:19;9.40;;;8.40;;
6671;SDS011;3372;48.690;12.362;2022-07-29T02:46:48;8.60;;;7.70;;
6671;SDS011;3372;48.690;12.362;2022-07-29T02:49:18;9.97;;;7.60;;
6671;SDS011;3372;48.690;12.362;2022-07-29T02:51:55;8.50;;;7.60;;
6671;SDS011;3372;48.690;12.362;2022-07-29T02:54:37;8.73;;;7.43;;
6671;SDS011;3372;48.690;12.362;2022-07-29T02:57:27;8.83;;;7.93;;
6671;SDS011;3372;48.690;12.362;2022-07-29T02:59:59;7.97;;;7.20;;
6671;SDS011;3372;48.690;12.362;2022-07-29T03:02:29;8.00;;;7.30;;
6671;SDS011;3372;48.690;12.362;2022-07-29T03:05:00;7.40;;;6.67;;
6671;SDS011;3372;48.690;12.362;2022-07-29T03:07:27;7.93;;;7.13;;
6671;SDS011;3372;48.690;12.362;2022-07-29T03:09:53;7.30;;;6.60;;
6671;SDS011;3372;48.690;12.362;2022-07-29T03:12:19;7.87;;;7.07;;
6671;SDS011;3372;48.690;12.362;2022-07-29T03:14:45;7.50;;;6.80;;
6671;SDS011;3372;48.690;12.362;2022-07-29T03:17:11;9.40;;;8.17;;
6671;SDS011;3372;48.690;12.362;2022-07-29T03:19:38;8.27;;;7.47;;
6671;SDS011;3372;48.690;12.362;2022-07-29T03:22:04;7.20;;;6.50;;
6671;SDS011;3372;48.690;12.362;2022-07-29T03:24:33;7.33;;;6.53;;
6671;SDS011;3372;48.690;12.362;2022-07-29T03:27:01;6.93;;;6.23;;
6671;SDS011;3372;48.690;12.362;2022-07-29T03:29:28;7.10;;;6.50;;
6671;SDS011;3372;48.690;12.362;2022-07-29T03:31:54;8.80;;;6.50;;
6671;SDS011;3372;48.690;12.362;2022-07-29T03:34:20;6.40;;;5.80;;
6671;SDS011;3372;48.690;12.362;2022-07-29T03:36:45;5.97;;;5.37;;
6671;SDS011;3372;48.690;12.362;2022-07-29T03:39:12;8.57;;;6.30;;
6671;SDS011;3372;48.690;12.362;2022-07-29T03:41:40;7.20;;;6.50;;
6671;SDS011;3372;48.690;12.362;2022-07-29T03:44:09;7.47;;;5.87;;
6671;SDS011;3372;48.690;12.362;2022-07-29T03:46:35;9.13;;;6.03;;
6671;SDS011;3372;48.690;12.362;2022-07-29T03:49:03;5.67;;;5.13;;
6671;SDS011;3372;48.690;12.362;2022-07-29T03:51:33;6.20;;;5.40;;
6671;SDS011;3372;48.690;12.362;2022-07-29T03:53:58;6.43;;;5.10;;
6671;SDS011;3372;48.690;12.362;2022-07-29T03:56:25;6.40;;;4.47;;
6671;SDS011;3372;48.690;12.362;2022-07-29T03:58:52;6.13;;;5.00;;
6671;SDS011;3372;48.690;12.362;2022-07-29T04:01:18;5.20;;;4.70;;
6671;SDS011;3372;48.690;12.362;2022-07-29T04:03:45;4.73;;;4.30;;
6671;SDS011;3372;48.690;12.362;2022-07-29T04:06:11;6.73;;;4.63;;
6671;SDS011;3372;48.690;12.362;2022-07-29T04:08:37;5.53;;;5.00;;
6671;SDS011;3372;48.690;12.362;2022-07-29T04:11:03;5.20;;;4.30;;
6671;SDS011;3372;48.690;12.362;2022-07-29T04:13:30;5.90;;;4.17;;
6671;SDS011;3372;48.690;12.362;2022-07-29T04:15:56;5.50;;;4.47;;
6671;SDS011;3372;48.690;12.362;2022-07-29T04:18:22;4.63;;;4.13;;
6671;SDS011;3372;48.690;12.362;2022-07-29T04:20:48;6.00;;;4.07;;
6671;SDS011;3372;48.690;12.362;2022-07-29T04:23:14;4.23;;;3.63;;
6671;SDS011;3372;48.690;12.362;2022-07-29T04:25:40;4.60;;;4.13;;
6671;SDS011;3372;48.690;12.362;2022-07-29T04:28:06;4.97;;;4.47;;
6671;SDS011;3372;48.690;12.362;2022-07-29T04:30:32;5.20;;;3.90;;
6671;SDS011;3372;48.690;12.362;2022-07-29T04:32:59;4.93;;;4.43;;
6671;SDS011;3372;48.690;12.362;2022-07-29T04:35:26;4.20;;;3.53;;
6671;SDS011;3372;48.690;12.362;2022-07-29T04:37:52;4.20;;;3.77;;
6671;SDS011;3372;48.690;12.362;2022-07-29T04:40:18;4.80;;;4.30;;
6671;SDS011;3372;48.690;12.362;2022-07-29T04:42:44;4.97;;;4.50;;
6671;SDS011;3372;48.690;12.362;2022-07-29T04:45:09;5.43;;;4.53;;
6671;SDS011;3372;48.690;12.362;2022-07-29T04:47:35;10.73;;;4.90;;
6671;SDS011;3372;48.690;12.362;2022-07-29T04:50:00;6.97;;;4.80;;
6671;SDS011;3372;48.690;12.362;2022-07-29T04:52:26;6.40;;;5.00;;
6671;SDS011;3372;48.690;12.362;2022-07-29T04:54:52;5.90;;;5.00;;
6671;SDS011;3372;48.690;12.362;2022-07-29T04:57:17;5.67;;;4.60;;
6671;SDS011;3372;48.690;12.362;2022-07-29T04:59:43;5.30;;;4.80;;
6671;SDS011;3372;48.690;12.362;2022-07-29T05:02:08;7.40;;;5.17;;
6671;SDS011;3372;48.690;12.362;2022-07-29T05:04:34;6.37;;;5.63;;
6671;SDS011;3372;48.690;12.362;2022-07-29T05:07:00;7.67;;;5.17;;
6671;SDS011;3372;48.690;12.362;2022-07-29T05:09:25;6.50;;;5.47;;
6671;SDS011;3372;48.690;12.362;2022-07-29T05:11:51;6.03;;;5.53;;
6671;SDS011;3372;48.690;12.362;2022-07-29T05:14:16;5.97;;;5.20;;
6671;SDS011;3372;48.690;12.362;2022-07-29T05:16:42;6.17;;;5.57;;
6671;SDS011;3372;48.690;12.362;2022-07-29T05:19:08;7.70;;;6.20;;
6671;SDS011;3372;48.690;12.362;2022-07-29T05:21:34;6.60;;;5.53;;
6671;SDS011;3372;48.690;12.362;2022-07-29T05:23:59;6.30;;;5.70;;
6671;SDS011;3372;48.690;12.362;2022-07-29T05:26:25;7.50;;;6.50;;
6671;SDS011;3372;48.690;12.362;2022-07-29T05:28:51;8.03;;;6.20;;
6671;SDS011;3372;48.690;12.362;2022-07-29T05:31:17;6.87;;;6.17;;
6671;SDS011;3372;48.690;12.362;2022-07-29T05:33:42;7.60;;;6.20;;
6671;SDS011;3372;48.690;12.362;2022-07-29T05:36:08;6.10;;;5.50;;
6671;SDS011;3372;48.690;12.362;2022-07-29T05:38:34;6.80;;;6.10;;
6671;SDS011;3372;48.690;12.362;2022-07-29T05:41:00;6.50;;;5.90;;
6671;SDS011;3372;48.690;12.362;2022-07-29T05:43:26;6.97;;;6.27;;
6671;SDS011;3372;48.690;12.362;2022-07-29T05:45:52;8.37;;;5.63;;
6671;SDS011;3372;48.690;12.362;2022-07-29T05:48:18;6.67;;;5.97;;
6671;SDS011;3372;48.690;12.362;2022-07-29T05:50:44;6.63;;;6.00;;
6671;SDS011;3372;48.690;12.362;2022-07-29T05:53:09;9.20;;;5.27;;
6671;SDS011;3372;48.690;12.362;2022-07-29T05:55:35;6.33;;;5.70;;
6671;SDS011;3372;48.690;12.362;2022-07-29T05:58:00;7.07;;;6.37;;
6671;SDS011;3372;48.690;12.362;2022-07-29T06:00:26;6.00;;;5.30;;
6671;SDS011;3372;48.690;12.362;2022-07-29T06:02:51;6.83;;;6.23;;
6671;SDS011;3372;48.690;12.362;2022-07-29T06:05:17;6.70;;;6.00;;
6671;SDS011;3372;48.690;12.362;2022-07-29T06:07:43;8.57;;;5.63;;
6671;SDS011;3372;48.690;12.362;2022-07-29T06:10:08;6.17;;;5.57;;
6671;SDS011;3372;48.690;12.362;2022-07-29T06:12:34;7.40;;;5.83;;
6671;SDS011;3372;48.690;12.362;2022-07-29T06:14:59;5.97;;;5.37;;
6671;SDS011;3372;48.690;12.362;2022-07-29T06:17:25;8.60;;;5.87;;
6671;SDS011;3372;48.690;12.362;2022-07-29T06:19:50;6.43;;;5.83;;
6671;SDS011;3372;48.690;12.362;2022-07-29T06:22:16;6.50;;;5.90;;
6671;SDS011;3372;48.690;12.362;2022-07-29T06:24:42;7.40;;;5.53;;
6671;SDS011;3372;48.690;12.362;2022-07-29T06:27:09;6.37;;;5.60;;
6671;SDS011;3372;48.690;12.362;2022-07-29T06:29:37;6.50;;;5.90;;
6671;SDS011;3372;48.690;12.362;2022-07-29T06:32:03;6.00;;;5.50;;
6671;SDS011;3372;48.690;12.362;2022-07-29T06:34:29;6.90;;;5.00;;
6671;SDS011;3372;48.690;12.362;2022-07-29T06:36:54;6.00;;;5.30;;
6671;SDS011;3372;48.690;12.362;2022-07-29T06:39:20;5.60;;;5.10;;
6671;SDS011;3372;48.690;12.362;2022-07-29T06:41:46;5.43;;;4.93;;
6671;SDS011;3372;48.690;12.362;2022-07-29T06:44:13;5.47;;;4.97;;
6671;SDS011;3372;48.690;12.362;2022-07-29T06:46:39;6.97;;;5.53;;
6671;SDS011;3372;48.690;12.362;2022-07-29T06:49:05;5.10;;;4.60;;
6671;SDS011;3372;48.690;12.362;2022-07-29T06:51:30;5.10;;;4.60;;
6671;SDS011;3372;48.690;12.362;2022-07-29T06:53:56;5.47;;;4.97;;
6671;SDS011;3372;48.690;12.362;2022-07-29T06:56:25;5.40;;;4.90;;
6671;SDS011;3372;48.690;12.362;2022-07-29T06:58:51;5.20;;;4.70;;
6671;SDS011;3372;48.690;12.362;2022-07-29T07:01:17;6.00;;;5.43;;
6671;SDS011;3372;48.690;12.362;2022-07-29T07:03:43;6.17;;;4.80;;
6671;SDS011;3372;48.690;12.362;2022-07-29T07:06:08;6.80;;;5.10;;
6671;SDS011;3372;48.690;12.362;2022-07-29T07:08:34;5.03;;;4.53;;
6671;SDS011;3372;48.690;12.362;2022-07-29T07:10:59;5.60;;;4.80;;
6671;SDS011;3372;48.690;12.362;2022-07-29T07:13:25;5.80;;;5.20;;
6671;SDS011;3372;48.690;12.362;2022-07-29T07:15:51;5.67;;;4.70;;
6671;SDS011;3372;48.690;12.362;2022-07-29T07:18:17;6.13;;;4.40;;
6671;SDS011;3372;48.690;12.362;2022-07-29T07:20:43;5.37;;;4.87;;
6671;SDS011;3372;48.690;12.362;2022-07-29T07:23:09;5.30;;;4.80;;
6671;SDS011;3372;48.690;12.362;2022-07-29T07:25:35;4.87;;;4.30;;
6671;SDS011;3372;48.690;12.362;2022-07-29T07:28:01;4.73;;;4.23;;
6671;SDS011;3372;48.690;12.362;2022-07-29T07:30:26;7.20;;;4.33;;
6671;SDS011;3372;48.690;12.362;2022-07-29T07:32:52;5.10;;;4.70;;
6671;SDS011;3372;48.690;12.362;2022-07-29T07:35:19;4.53;;;4.00;;
6671;SDS011;3372;48.690;12.362;2022-07-29T07:37:44;5.10;;;4.20;;
6671;SDS011;3372;48.690;12.362;2022-07-29T07:40:13;4.07;;;3.77;;
6671;SDS011;3372;48.690;12.362;2022-07-29T07:42:39;5.13;;;4.33;;
6671;SDS011;3372;48.690;12.362;2022-07-29T07:45:05;8.33;;;4.30;;
6671;SDS011;3372;48.690;12.362;2022-07-29T07:47:34;5.40;;;4.43;;
6671;SDS011;3372;48.690;12.362;2022-07-29T07:50:00;4.30;;;3.90;;
6671;SDS011;3372;48.690;12.362;2022-07-29T07:52:25;6.00;;;4.27;;
6671;SDS011;3372;48.690;12.362;2022-07-29T07:54:51;3.87;;;3.43;;
6671;SDS011;3372;48.690;12.362;2022-07-29T07:57:19;4.10;;;3.60;;
6671;SDS011;3372;48.690;12.362;2022-07-29T07:59:44;4.30;;;3.90;;
6671;SDS011;3372;48.690;12.362;2022-07-29T08:02:10;4.47;;;4.00;;
6671;SDS011;3372;48.690;12.362;2022-07-29T08:04:36;3.80;;;3.40;;
6671;SDS011;3372;48.690;12.362;2022-07-29T08:07:02;4.33;;;3.93;;
6671;SDS011;3372;48.690;12.362;2022-07-29T08:09:28;6.10;;;4.80;;
6671;SDS011;3372;48.690;12.362;2022-07-29T08:11:54;4.77;;;4.30;;
6671;SDS011;3372;48.690;12.362;2022-07-29T08:14:21;4.73;;;4.23;;
6671;SDS011;3372;48.690;12.362;2022-07-29T08:16:46;4.47;;;4.07;;
6671;SDS011;3372;48.690;12.362;2022-07-29T08:19:12;4.30;;;3.90;;
6671;SDS011;3372;48.690;12.362;2022-07-29T08:21:38;3.93;;;3.60;;
6671;SDS011;3372;48.690;12.362;2022-07-29T08:24:03;4.20;;;3.80;;
6671;SDS011;3372;48.690;12.362;2022-07-29T08:26:48;4.20;;;3.63;;
6671;SDS011;3372;48.690;12.362;2022-07-29T08:29:13;4.97;;;4.23;;
6671;SDS011;3372;48.690;12.362;2022-07-29T08:31:39;4.43;;;3.83;;
6671;SDS011;3372;48.690;12.362;2022-07-29T08:34:05;6.00;;;4.33;;
6671;SDS011;3372;48.690;12.362;2022-07-29T08:36:32;4.07;;;3.60;;
6671;SDS011;3372;48.690;12.362;2022-07-29T08:38:58;3.70;;;3.40;;
6671;SDS011;3372;48.690;12.362;2022-07-29T08:41:26;4.07;;;3.70;;
6671;SDS011;3372;48.690;12.362;2022-07-29T08:43:52;4.00;;;3.60;;
6671;SDS011;3372;48.690;12.362;2022-07-29T08:46:19;4.17;;;3.50;;
6671;SDS011;3372;48.690;12.362;2022-07-29T08:48:46;4.03;;;3.67;;
6671;SDS011;3372;48.690;12.362;2022-07-29T08:51:16;4.10;;;3.77;;
6671;SDS011;3372;48.690;12.362;2022-07-29T08:53:44;3.77;;;3.47;;
6671;SDS011;3372;48.690;12.362;2022-07-29T08:56:13;3.87;;;3.50;;
6671;SDS011;3372;48.690;12.362;2022-07-29T08:58:41;4.50;;;3.77;;
6671;SDS011;3372;48.690;12.362;2022-07-29T09:01:07;4.37;;;3.97;;
6671;SDS011;3372;48.690;12.362;2022-07-29T09:03:36;3.70;;;3.40;;
6671;SDS011;3372;48.690;12.362;2022-07-29T09:06:04;4.00;;;3.67;;
6671;SDS011;3372;48.690;12.362;2022-07-29T09:08:30;4.03;;;3.50;;
6671;SDS011;3372;48.690;12.362;2022-07-29T09:10:57;3.30;;;3.00;;
6671;SDS011;3372;48.690;12.362;2022-07-29T09:13:24;4.57;;;3.90;;
6671;SDS011;3372;48.690;12.362;2022-07-29T09:15:50;4.40;;;3.30;;
6671;SDS011;3372;48.690;12.362;2022-07-29T09:19:01;3.77;;;3.40;;
6671;SDS011;3372;48.690;12.362;2022-07-29T09:21:07;3.63;;;2.97;;
6671;SDS011;3372;48.690;12.362;2022-07-29T09:23:59;4.00;;;3.60;;
6671;SDS011;3372;48.690;12.362;2022-07-29T09:26:30;4.20;;;3.80;;
6671;SDS011;3372;48.690;12.362;2022-07-29T09:28:57;4.27;;;2.77;;
6671;SDS011;3372;48.690;12.362;2022-07-29T09:31:32;4.10;;;3.60;;
6671;SDS011;3372;48.690;12.362;2022-07-29T09:34:00;3.43;;;2.80;;
6671;SDS011;3372;48.690;12.362;2022-07-29T09:36:26;3.47;;;3.13;;
6671;SDS011;3372;48.690;12.362;2022-07-29T09:39:01;3.40;;;3.10;;
6671;SDS011;3372;48.690;12.362;2022-07-29T09:41:28;4.57;;;3.60;;
6671;SDS011;3372;48.690;12.362;2022-07-29T09:43:54;3.40;;;3.10;;
6671;SDS011;3372;48.690;12.362;2022-07-29T09:46:25;3.77;;;3.17;;
6671;SDS011;3372;48.690;12.362;2022-07-29T09:52:07;3.10;;;2.80;;
6671;SDS011;3372;48.690;12.362;2022-07-29T09:54:35;3.00;;;2.70;;
6671;SDS011;3372;48.690;12.362;2022-07-29T09:57:02;4.30;;;3.00;;
6671;SDS011;3372;48.690;12.362;2022-07-29T09:59:33;3.30;;;3.00;;
6671;SDS011;3372;48.690;12.362;2022-07-29T10:01:59;4.20;;;3.13;;
6671;SDS011;3372;48.690;12.362;2022-07-29T10:04:40;3.00;;;2.80;;
6671;SDS011;3372;48.690;12.362;2022-07-29T10:07:07;4.20;;;2.97;;
6671;SDS011;3372;48.690;12.362;2022-07-29T10:09:33;3.77;;;3.07;;
6671;SDS011;3372;48.690;12.362;2022-07-29T10:12:03;3.40;;;2.90;;
6671;SDS011;3372;48.690;12.362;2022-07-29T10:14:33;3.03;;;2.60;;
6671;SDS011;3372;48.690;12.362;2022-07-29T10:16:59;4.50;;;3.20;;
6671;SDS011;3372;48.690;12.362;2022-07-29T10:19:27;3.23;;;2.80;;
6671;SDS011;3372;48.690;12.362;2022-07-29T10:21:54;3.37;;;2.80;;
6671;SDS011;3372;48.690;12.362;2022-07-29T10:24:21;3.40;;;2.97;;
6671;SDS011;3372;48.690;12.362;2022-07-29T10:26:47;3.03;;;2.73;;
6671;SDS011;3372;48.690;12.362;2022-07-29T10:29:17;2.83;;;2.63;;
6671;SDS011;3372;48.690;12.362;2022-07-29T10:31:44;2.97;;;2.60;;
6671;SDS011;3372;48.690;12.362;2022-07-29T10:37:13;3.07;;;2.77;;
6671;SDS011;3372;48.690;12.362;2022-07-29T10:43:18;3.23;;;2.93;;
6671;SDS011;3372;48.690;12.362;2022-07-29T10:45:47;3.10;;;2.80;;
6671;SDS011;3372;48.690;12.362;2022-07-29T10:48:14;3.07;;;2.77;;
6671;SDS011;3372;48.690;12.362;2022-07-29T10:56:28;4.60;;;2.93;;
6671;SDS011;3372;48.690;12.362;2022-07-29T11:01:43;3.27;;;2.60;;
6671;SDS011;3372;48.690;12.362;2022-07-29T11:04:09;3.10;;;2.83;;
6671;SDS011;3372;48.690;12.362;2022-07-29T11:09:25;3.30;;;2.83;;
6671;SDS011;3372;48.690;12.362;2022-07-29T11:11:51;3.50;;;2.63;;
6671;SDS011;3372;48.690;12.362;2022-07-29T11:14:17;2.67;;;2.47;;
6671;SDS011;3372;48.690;12.362;2022-07-29T11:17:04;2.50;;;2.30;;
6671;SDS011;3372;48.690;12.362;2022-07-29T11:19:31;2.13;;;1.93;;
6671;SDS011;3372;48.690;12.362;2022-07-29T11:21:57;2.60;;;2.27;;
6671;SDS011;3372;48.690;12.362;2022-07-29T11:27:09;3.30;;;2.53;;
6671;SDS011;3372;48.690;12.362;2022-07-29T11:32:22;2.40;;;2.20;;
6671;SDS011;3372;48.690;12.362;2022-07-29T11:34:48;3.07;;;2.43;;
6671;SDS011;3372;48.690;12.362;2022-07-29T11:37:35;3.40;;;2.40;;
6671;SDS011;3372;48.690;12.362;2022-07-29T11:42:36;2.63;;;2.30;;
6671;SDS011;3372;48.690;12.362;2022-07-29T11:45:10;3.40;;;2.60;;
6671;SDS011;3372;48.690;12.362;2022-07-29T11:47:40;3.00;;;2.30;;
6671;SDS011;3372;48.690;12.362;2022-07-29T11:50:26;3.60;;;2.60;;
6671;SDS011;3372;48.690;12.362;2022-07-29T11:52:53;2.60;;;2.40;;
6671;SDS011;3372;48.690;12.362;2022-07-29T11:55:20;3.47;;;2.63;;
6671;SDS011;3372;48.690;12.362;2022-07-29T11:57:51;2.67;;;2.40;;
6671;SDS011;3372;48.690;12.362;2022-07-29T12:02:57;5.07;;;2.50;;
6671;SDS011;3372;48.690;12.362;2022-07-29T12:05:35;4.70;;;2.50;;
6671;SDS011;3372;48.690;12.362;2022-07-29T12:08:12;3.43;;;2.43;;
6671;SDS011;3372;48.690;12.362;2022-07-29T12:10:41;5.03;;;2.80;;
6671;SDS011;3372;48.690;12.362;2022-07-29T12:13:07;2.63;;;2.43;;
6671;SDS011;3372;48.690;12.362;2022-07-29T12:15:34;12.53;;;3.30;;
6671;SDS011;3372;48.690;12.362;2022-07-29T12:18:09;3.40;;;2.67;;
6671;SDS011;3372;48.690;12.362;2022-07-29T12:20:45;2.67;;;2.20;;
6671;SDS011;3372;48.690;12.362;2022-07-29T12:23:11;2.50;;;2.30;;
6671;SDS011;3372;48.690;12.362;2022-07-29T12:25:37;4.13;;;2.60;;
6671;SDS011;3372;48.690;12.362;2022-07-29T12:28:05;3.90;;;2.53;;
6671;SDS011;3372;48.690;12.362;2022-07-29T12:30:34;3.23;;;2.57;;
6671;SDS011;3372;48.690;12.362;2022-07-29T12:33:09;4.20;;;3.07;;
6671;SDS011;3372;48.690;12.362;2022-07-29T12:35:46;3.13;;;2.83;;
6671;SDS011;3372;48.690;12.362;2022-07-29T12:38:17;3.00;;;2.70;;
6671;SDS011;3372;48.690;12.362;2022-07-29T12:40:43;3.03;;;2.73;;
6671;SDS011;3372;48.690;12.362;2022-07-29T12:43:14;3.30;;;3.00;;
6671;SDS011;3372;48.690;12.362;2022-07-29T12:45:44;2.70;;;2.50;;
6671;SDS011;3372;48.690;12.362;2022-07-29T12:48:15;3.37;;;2.47;;
6671;SDS011;3372;48.690;12.362;2022-07-29T12:51:00;3.60;;;2.90;;
6671;SDS011;3372;48.690;12.362;2022-07-29T12:53:27;5.47;;;4.00;;
6671;SDS011;3372;48.690;12.362;2022-07-29T12:55:53;4.10;;;3.33;;
6671;SDS011;3372;48.690;12.362;2022-07-29T12:58:39;3.30;;;3.00;;
6671;SDS011;3372;48.690;12.362;2022-07-29T13:01:13;3.40;;;3.10;;
6671;SDS011;3372;48.690;12.362;2022-07-29T13:03:55;3.30;;;2.90;;
6671;SDS011;3372;48.690;12.362;2022-07-29T13:11:43;5.50;;;3.70;;
6671;SDS011;3372;48.690;12.362;2022-07-29T13:14:13;3.80;;;2.93;;
6671;SDS011;3372;48.690;12.362;2022-07-29T13:17:10;4.07;;;3.60;;
6671;SDS011;3372;48.690;12.362;2022-07-29T13:19:38;3.60;;;3.10;;
6671;SDS011;3372;48.690;12.362;2022-07-29T13:22:06;3.10;;;2.80;;
6671;SDS011;3372;48.690;12.362;2022-07-29T13:24:33;3.50;;;3.20;;
6671;SDS011;3372;48.690;12.362;2022-07-29T13:26:59;3.40;;;3.10;;
6671;SDS011;3372;48.690;12.362;2022-07-29T13:29:25;3.97;;;3.67;;
6671;SDS011;3372;48.690;12.362;2022-07-29T13:31:51;3.27;;;2.80;;
6671;SDS011;3372;48.690;12.362;2022-07-29T13:34:17;3.40;;;3.00;;
6671;SDS011;3372;48.690;12.362;2022-07-29T13:36:45;4.70;;;3.50;;
6671;SDS011;3372;48.690;12.362;2022-07-29T13:39:11;4.20;;;3.73;;
6671;SDS011;3372;48.690;12.362;2022-07-29T13:41:36;4.20;;;3.10;;
6671;SDS011;3372;48.690;12.362;2022-07-29T13:44:02;4.83;;;3.20;;
6671;SDS011;3372;48.690;12.362;2022-07-29T13:46:27;5.70;;;3.37;;
6671;SDS011;3372;48.690;12.362;2022-07-29T13:48:53;6.80;;;3.63;;
6671;SDS011;3372;48.690;12.362;2022-07-29T13:51:19;4.33;;;3.20;;
6671;SDS011;3372;48.690;12.362;2022-07-29T13:53:44;4.00;;;3.30;;
6671;SDS011;3372;48.690;12.362;2022-07-29T13:56:10;3.20;;;2.90;;
6671;SDS011;3372;48.690;12.362;2022-07-29T13:58:35;3.07;;;2.83;;
6671;SDS011;3372;48.690;12.362;2022-07-29T14:01:01;4.17;;;3.20;;
6671;SDS011;3372;48.690;12.362;2022-07-29T14:03:27;4.07;;;3.67;;
6671;SDS011;3372;48.690;12.362;2022-07-29T14:05:53;3.50;;;3.20;;
6671;SDS011;3372;48.690;12.362;2022-07-29T14:08:18;3.50;;;2.90;;
6671;SDS011;3372;48.690;12.362;2022-07-29T14:10:44;6.03;;;3.43;;
6671;SDS011;3372;48.690;12.362;2022-07-29T14:13:09;3.50;;;3.20;;
6671;SDS011;3372;48.690;12.362;2022-07-29T14:15:35;3.33;;;3.03;;
6671;SDS011;3372;48.690;12.362;2022-07-29T14:18:01;3.50;;;3.20;;
6671;SDS011;3372;48.690;12.362;2022-07-29T14:20:27;4.73;;;3.20;;
6671;SDS011;3372;48.690;12.362;2022-07-29T14:22:54;3.30;;;3.00;;
6671;SDS011;3372;48.690;12.362;2022-07-29T14:25:21;3.40;;;3.10;;
6671;SDS011;3372;48.690;12.362;2022-07-29T14:27:47;4.10;;;3.33;;
6671;SDS011;3372;48.690;12.362;2022-07-29T14:30:13;5.47;;;3.47;;
6671;SDS011;3372;48.690;12.362;2022-07-29T14:32:38;8.33;;;3.63;;
6671;SDS011;3372;48.690;12.362;2022-07-29T14:35:05;3.60;;;3.30;;
6671;SDS011;3372;48.690;12.362;2022-07-29T14:37:31;3.93;;;3.60;;
6671;SDS011;3372;48.690;12.362;2022-07-29T14:39:57;4.03;;;3.10;;
6671;SDS011;3372;48.690;12.362;2022-07-29T14:42:26;4.40;;;3.50;;
6671;SDS011;3372;48.690;12.362;2022-07-29T14:44:52;6.90;;;3.60;;
6671;SDS011;3372;48.690;12.362;2022-07-29T14:47:18;5.60;;;3.27;;
6671;SDS011;3372;48.690;12.362;2022-07-29T14:49:44;4.00;;;3.70;;
6671;SDS011;3372;48.690;12.362;2022-07-29T14:52:10;5.47;;;3.30;;
6671;SDS011;3372;48.690;12.362;2022-07-29T14:54:35;4.67;;;3.60;;
6671;SDS011;3372;48.690;12.362;2022-07-29T14:57:01;6.30;;;3.20;;
6671;SDS011;3372;48.690;12.362;2022-07-29T14:59:26;4.20;;;3.83;;
6671;SDS011;3372;48.690;12.362;2022-07-29T15:01:52;4.27;;;3.40;;
6671;SDS011;3372;48.690;12.362;2022-07-29T15:04:18;3.83;;;3.23;;
6671;SDS011;3372;48.690;12.362;2022-07-29T15:06:44;5.80;;;3.50;;
6671;SDS011;3372;48.690;12.362;2022-07-29T15:09:09;5.10;;;3.60;;
6671;SDS011;3372;48.690;12.362;2022-07-29T15:11:35;4.10;;;3.30;;
6671;SDS011;3372;48.690;12.362;2022-07-29T15:14:01;6.33;;;3.57;;
6671;SDS011;3372;48.690;12.362;2022-07-29T15:16:26;5.33;;;3.30;;
6671;SDS011;3372;48.690;12.362;2022-07-29T15:18:52;4.80;;;3.40;;
6671;SDS011;3372;48.690;12.362;2022-07-29T15:21:17;4.47;;;3.20;;
6671;SDS011;3372;48.690;12.362;2022-07-29T15:23:43;3.60;;;3.30;;
6671;SDS011;3372;48.690;12.362;2022-07-29T15:26:09;4.13;;;3.20;;
6671;SDS011;3372;48.690;12.362;2022-07-29T15:28:35;4.57;;;3.47;;
6671;SDS011;3372;48.690;12.362;2022-07-29T15:31:00;3.37;;;3.07;;
6671;SDS011;3372;48.690;12.362;2022-07-29T15:33:26;4.77;;;3.57;;
6671;SDS011;3372;48.690;12.362;2022-07-29T15:35:51;4.70;;;3.53;;
6671;SDS011;3372;48.690;12.362;2022-07-29T15:38:17;3.87;;;3.53;;
6671;SDS011;3372;48.690;12.362;2022-07-29T15:40:43;4.00;;;3.10;;
6671;SDS011;3372;48.690;12.362;2022-07-29T15:43:09;4.33;;;3.23;;
6671;SDS011;3372;48.690;12.362;2022-07-29T15:45:38;3.53;;;3.20;;
6671;SDS011;3372;48.690;12.362;2022-07-29T15:48:05;3.83;;;3.23;;
6671;SDS011;3372;48.690;12.362;2022-07-29T15:50:32;6.07;;;3.33;;